Time;durP1;ratioP1;P1;durP2;ratioP2;P2;SDS_P1;SDS_P2;PMS_P1;PMS_P2;Temp;Humidity;BMP_temperature;BMP_pressure;BME280_temperature;BME280_humidity;BME280_pressure;Samples;Min_cycle;Max_cycle;Signal;HPM_P1;HPM_P2
2023/04/26 00:00:41;;;;;;;75.15;23.52;;;7.30;99.90;;;6.18;100.00;97380.50;4933814;29;20507;-76
2023/04/26 00:03:09;;;;;;;83.30;24.38;;;7.30;99.90;;;6.18;100.00;97391.00;4933840;29;20411;-76
2023/04/26 00:05:36;;;;;;;98.90;29.70;;;7.30;99.90;;;6.16;100.00;97388.59;4933665;29;20422;-76
2023/04/26 00:08:03;;;;;;;89.05;28.35;;;7.20;99.90;;;6.12;100.00;97384.81;4933772;29;20415;-76
2023/04/26 00:10:29;;;;;;;74.38;23.35;;;7.20;99.90;;;6.06;100.00;97384.91;4933680;29;20412;-76
2023/04/26 00:12:55;;;;;;;81.17;25.63;;;7.20;99.90;;;6.07;100.00;97379.44;4933711;29;20936;-76
2023/04/26 00:15:21;;;;;;;79.78;26.05;;;7.20;99.90;;;6.01;100.00;97387.41;4933473;29;20403;-76
2023/04/26 00:17:47;;;;;;;75.65;23.73;;;7.00;99.90;;;5.99;100.00;97384.19;4932384;29;20427;-76
2023/04/26 00:20:14;;;;;;;71.82;24.17;;;7.10;99.90;;;6.01;100.00;97382.94;4933533;29;20416;-76
2023/04/26 00:22:40;;;;;;;78.40;25.03;;;7.10;99.90;;;5.99;100.00;97377.13;4933650;29;20790;-76
2023/04/26 00:25:07;;;;;;;71.03;22.58;;;7.10;99.90;;;5.99;100.00;97379.75;4933553;29;20407;-76
2023/04/26 00:27:33;;;;;;;76.00;24.73;;;7.10;99.90;;;5.99;100.00;97377.13;4932234;29;20404;-76
2023/04/26 00:29:59;;;;;;;77.18;25.42;;;7.10;99.90;;;5.98;100.00;97383.38;4933385;29;20415;-76
2023/04/26 00:32:25;;;;;;;73.78;24.08;;;7.10;99.90;;;5.97;100.00;97383.59;4933433;29;20512;-76
2023/04/26 00:34:51;;;;;;;67.28;21.40;;;7.10;99.90;;;5.95;100.00;97385.63;4933409;29;20510;-76
2023/04/26 00:37:18;;;;;;;79.93;24.20;;;7.00;99.90;;;5.94;100.00;97376.19;4933494;29;20457;-76
2023/04/26 00:39:44;;;;;;;66.55;24.05;;;7.00;99.90;;;5.93;100.00;97377.19;4932325;29;20493;-76
2023/04/26 00:42:10;;;;;;;72.60;24.55;;;7.00;99.90;;;5.92;100.00;97378.22;4932225;29;20447;-76
2023/04/26 00:44:38;;;;;;;85.50;27.02;;;7.00;99.90;;;5.90;100.00;97385.50;4933252;29;20491;-76
2023/04/26 00:47:05;;;;;;;87.13;27.73;;;7.00;99.90;;;5.85;100.00;97380.91;4932019;29;20427;-76
2023/04/26 00:49:31;;;;;;;83.78;27.15;;;6.90;99.90;;;5.84;100.00;97387.97;4933238;29;20961;-76
2023/04/26 00:51:57;;;;;;;78.70;24.07;;;6.90;99.90;;;5.80;100.00;97386.78;4933316;29;20492;-76
2023/04/26 00:54:25;;;;;;;67.32;21.73;;;6.90;99.90;;;5.81;100.00;97387.59;4933243;29;20414;-76
2023/04/26 00:56:52;;;;;;;67.25;22.98;;;6.90;99.90;;;5.84;100.00;97393.22;4933393;29;20412;-76
2023/04/26 00:59:19;;;;;;;73.05;23.95;;;6.90;99.90;;;5.85;100.00;97386.16;4933554;29;20455;-76
2023/04/26 01:01:45;;;;;;;93.38;27.80;;;7.00;99.90;;;5.84;100.00;97385.34;4931882;29;20825;-76
2023/04/26 01:04:11;;;;;;;88.45;26.85;;;6.90;99.90;;;5.83;100.00;97391.63;4933072;29;20494;-76
2023/04/26 01:06:40;;;;;;;84.37;25.93;;;6.90;99.90;;;5.81;100.00;97388.41;4933158;29;20407;-76
2023/04/26 01:09:11;;;;;;;74.30;24.37;;;6.90;99.90;;;5.81;100.00;97398.09;4933478;29;20411;-76
2023/04/26 01:11:39;;;;;;;91.03;27.80;;;6.90;99.90;;;5.82;100.00;97391.84;4933793;29;20968;-76
2023/04/26 01:14:05;;;;;;;72.50;23.77;;;6.90;99.90;;;5.79;100.00;97392.25;4937907;29;20499;-76
2023/04/26 01:16:32;;;;;;;73.88;24.45;;;6.90;99.90;;;5.79;100.00;97398.31;4931435;29;20810;-76
2023/04/26 01:19:08;;;;;;;72.15;23.63;;;6.90;99.90;;;5.75;100.00;97394.53;4932844;29;20427;-76
2023/04/26 01:21:34;;;;;;;81.97;26.50;;;6.90;99.90;;;5.71;100.00;97389.97;4932919;29;20411;-76
2023/04/26 01:24:02;;;;;;;81.50;26.80;;;6.80;99.90;;;5.66;100.00;97384.53;4933081;29;20766;-76
2023/04/26 01:26:28;;;;;;;75.60;24.77;;;6.80;99.90;;;5.63;100.00;97377.94;4931546;29;20419;-76
2023/04/26 01:28:53;;;;;;;63.53;21.80;;;6.70;99.90;;;5.61;100.00;97382.59;4933097;29;20418;-76
2023/04/26 01:31:20;;;;;;;71.40;24.80;;;6.80;99.90;;;5.62;100.00;97370.25;4932827;29;20407;-76
2023/04/26 01:33:45;;;;;;;84.47;28.20;;;6.70;99.90;;;5.60;100.00;97382.81;4933020;29;20897;-76
2023/04/26 01:36:11;;;;;;;90.93;28.17;;;6.60;99.90;;;5.55;100.00;97385.28;4932841;29;20430;-76
2023/04/26 01:38:37;;;;;;;86.60;28.13;;;6.70;99.90;;;5.52;100.00;97386.53;4932760;29;20491;-76
2023/04/26 01:41:04;;;;;;;63.67;23.07;;;6.60;99.90;;;5.47;100.00;97382.94;4932883;29;20435;-76
2023/04/26 01:43:31;;;;;;;75.32;24.17;;;6.60;99.90;;;5.43;100.00;97386.00;4932967;29;20410;-76
2023/04/26 01:45:57;;;;;;;72.32;23.45;;;6.60;99.90;;;5.38;100.00;97385.84;4932777;29;20415;-76
2023/04/26 01:48:22;;;;;;;59.38;21.20;;;6.50;99.90;;;5.33;100.00;97377.84;4932834;29;20502;-76
2023/04/26 01:50:48;;;;;;;71.57;23.83;;;6.50;99.90;;;5.30;100.00;97385.34;4931307;29;20531;-76
2023/04/26 01:53:14;;;;;;;61.47;21.40;;;6.50;99.90;;;5.26;100.00;97389.44;4934739;29;20443;-76
2023/04/26 01:55:40;;;;;;;64.03;22.88;;;6.40;99.90;;;5.23;100.00;97392.47;4936204;29;20454;-76
2023/04/26 01:58:07;;;;;;;73.78;25.45;;;6.40;99.90;;;5.23;100.00;97385.41;4936172;29;20427;-76
2023/04/26 02:00:33;;;;;;;63.87;22.63;;;6.40;99.90;;;5.19;100.00;97393.94;4934694;29;20838;-76
2023/04/26 02:02:59;;;;;;;66.18;23.40;;;6.40;99.90;;;5.14;100.00;97384.06;4936106;29;20419;-76
2023/04/26 02:05:25;;;;;;;69.37;23.10;;;6.30;99.90;;;5.10;100.00;97382.91;4934703;29;20507;-76
2023/04/26 02:07:51;;;;;;;74.28;24.70;;;6.30;99.90;;;5.04;100.00;97370.63;4935907;29;20458;-76
2023/04/26 02:10:17;;;;;;;67.47;23.85;;;6.20;99.90;;;5.02;100.00;97375.31;4935918;29;20412;-76
2023/04/26 02:12:43;;;;;;;82.85;28.20;;;6.20;99.90;;;5.03;100.00;97382.19;4935887;29;20935;-76
2023/04/26 02:15:11;;;;;;;72.88;25.00;;;6.10;99.90;;;4.94;100.00;97375.59;4935540;29;20418;-76
2023/04/26 02:17:38;;;;;;;82.72;25.25;;;6.10;99.90;;;4.83;100.00;97369.22;4935834;29;20415;-76
2023/04/26 02:20:09;;;;;;;78.77;24.90;;;6.00;99.90;;;4.77;100.00;97371.91;4935896;29;20500;-76
2023/04/26 02:22:35;;;;;;;82.23;27.80;;;5.90;99.90;;;4.77;100.00;97371.91;4935680;29;20491;-76
2023/04/26 02:25:01;;;;;;;78.60;27.60;;;5.90;99.90;;;4.75;100.00;97379.97;4934250;29;20423;-76
2023/04/26 02:27:27;;;;;;;81.50;25.98;;;5.90;99.90;;;4.70;100.00;97379.00;4935668;29;20502;-76
2023/04/26 02:29:52;;;;;;;72.40;25.07;;;5.90;99.90;;;4.67;100.00;97380.22;4935422;29;20441;-76
2023/04/26 02:32:20;;;;;;;91.95;29.02;;;5.80;99.90;;;4.65;100.00;97375.22;4935656;29;20467;-76
2023/04/26 02:34:46;;;;;;;100.75;30.60;;;5.80;99.90;;;4.67;100.00;97377.63;4935480;29;20411;-76
2023/04/26 02:37:11;;;;;;;92.95;29.42;;;5.80;99.90;;;4.60;100.00;97382.09;4935557;29;20973;-76
2023/04/26 02:39:37;;;;;;;93.45;29.85;;;5.80;99.90;;;4.59;100.00;97380.50;4933911;29;20519;-76
2023/04/26 02:42:07;;;;;;;88.05;27.42;;;5.80;99.90;;;4.62;100.00;97382.69;4934019;29;20470;-76
2023/04/26 02:44:33;;;;;;;76.07;25.55;;;5.80;99.90;;;4.66;100.00;97386.53;4935342;29;20889;-76
2023/04/26 02:46:59;;;;;;;108.33;33.00;;;5.90;99.90;;;4.71;100.00;97389.28;4935223;29;20411;-76
2023/04/26 02:49:26;;;;;;;106.57;32.75;;;5.90;99.90;;;4.75;100.00;97384.41;4933864;29;20926;-76
2023/04/26 02:51:52;;;;;;;114.40;34.50;;;5.90;99.90;;;4.80;100.00;97379.34;4935138;29;20447;-76
2023/04/26 02:54:18;;;;;;;104.68;32.20;;;6.00;99.90;;;4.84;100.00;97383.94;4934961;29;20415;-75
2023/04/26 02:56:44;;;;;;;119.57;35.00;;;6.00;99.90;;;4.91;100.00;97381.25;4935031;29;20427;-76
2023/04/26 02:59:10;;;;;;;122.57;34.53;;;6.00;99.90;;;4.90;100.00;97377.03;4934873;29;20910;-76
2023/04/26 03:01:36;;;;;;;136.50;38.50;;;6.10;99.90;;;4.94;100.00;97379.03;4934894;29;20437;-76
2023/04/26 03:04:02;;;;;;;135.38;36.97;;;6.10;99.90;;;4.93;100.00;97382.66;4934637;29;20412;-75
2023/04/26 03:06:29;;;;;;;111.97;32.63;;;6.10;99.90;;;4.91;100.00;97384.69;4933516;29;20420;-75
2023/04/26 03:08:55;;;;;;;118.35;32.38;;;6.10;99.90;;;4.92;100.00;97385.50;4933623;29;20429;-74
2023/04/26 03:11:21;;;;;;;147.77;41.93;;;6.10;99.90;;;4.96;100.00;97379.59;4934709;29;20420;-76
2023/04/26 03:13:47;;;;;;;114.47;34.28;;;6.10;99.90;;;4.91;100.00;97386.50;4934752;29;20490;-76
2023/04/26 03:16:12;;;;;;;120.25;35.15;;;6.10;99.90;;;4.89;100.00;97389.34;4933281;29;20518;-76
2023/04/26 03:18:39;;;;;;;151.18;41.03;;;6.10;99.90;;;4.88;100.00;97382.50;4934568;29;20456;-76
2023/04/26 03:21:04;;;;;;;164.07;44.05;;;6.00;99.90;;;4.87;100.00;97390.59;4933131;29;20426;-76
2023/04/26 03:23:32;;;;;;;139.90;38.78;;;6.10;99.90;;;4.83;100.00;97390.19;4933209;29;20412;-76
2023/04/26 03:25:58;;;;;;;151.60;41.97;;;6.00;99.90;;;4.81;100.00;97392.22;4934348;29;20434;-76
2023/04/26 03:28:24;;;;;;;138.55;39.75;;;6.00;99.90;;;4.77;100.00;97393.69;4934342;29;20890;-76
2023/04/26 03:30:50;;;;;;;152.18;39.38;;;5.90;99.90;;;4.70;100.00;97386.88;4934224;29;20429;-76
2023/04/26 03:33:16;;;;;;;164.32;42.92;;;5.90;99.90;;;4.65;100.00;97390.97;4934344;29;20446;-76
2023/04/26 03:35:42;;;;;;;154.90;40.50;;;5.90;99.90;;;4.62;100.00;97388.75;4934230;29;20418;-76
2023/04/26 03:38:08;;;;;;;160.93;40.47;;;5.80;99.90;;;4.56;100.00;97386.19;4934096;29;20430;-76
2023/04/26 03:40:35;;;;;;;143.03;37.20;;;5.80;99.90;;;4.52;100.00;97390.22;4934087;29;20861;-76
2023/04/26 03:43:01;;;;;;;148.25;39.40;;;5.70;99.90;;;4.48;100.00;97389.84;4934198;29;20411;-76
2023/04/26 03:45:27;;;;;;;160.13;42.03;;;5.70;99.90;;;4.44;100.00;97377.38;4933979;29;20550;-76
2023/04/26 03:47:58;;;;;;;165.82;40.95;;;5.70;99.90;;;4.39;100.00;97385.88;4932416;29;20403;-74
2023/04/26 03:50:25;;;;;;;165.10;43.42;;;5.60;99.90;;;4.37;100.00;97387.91;4931068;28;20407;-76
2023/04/26 03:52:51;;;;;;;154.60;39.75;;;5.50;99.90;;;4.15;100.00;97381.38;4933796;29;20454;-76
2023/04/26 03:55:17;;;;;;;133.77;37.35;;;5.40;99.90;;;4.07;100.00;97381.63;4933140;29;20590;-76
2023/04/26 03:57:44;;;;;;;157.95;41.38;;;5.30;99.90;;;4.12;100.00;97384.44;4932197;28;20432;-76
2023/04/26 04:00:13;;;;;;;138.57;36.92;;;5.30;99.90;;;3.94;100.00;97394.78;4933272;29;20616;-76
2023/04/26 04:02:39;;;;;;;114.00;32.30;;;5.20;99.90;;;3.86;100.00;97393.22;4933435;29;20446;-75
2023/04/26 04:05:06;;;;;;;116.32;33.00;;;5.10;99.90;;;3.84;100.00;97390.00;4933571;29;20451;-76
2023/04/26 04:07:33;;;;;;;143.40;40.80;;;5.10;99.90;;;3.92;100.00;97392.38;4933265;29;20434;-76
2023/04/26 04:09:59;;;;;;;163.57;41.08;;;5.10;99.90;;;3.77;100.00;97394.47;4933078;29;20412;-76
2023/04/26 04:12:25;;;;;;;163.73;43.45;;;5.00;99.90;;;3.79;100.00;97395.06;4933273;29;20415;-76
2023/04/26 04:14:53;;;;;;;156.60;42.97;;;4.90;99.90;;;3.76;100.00;97395.50;4932762;29;20414;-75
2023/04/26 04:17:19;;;;;;;161.52;43.13;;;4.90;99.90;;;3.65;100.00;97385.66;4933168;29;20418;-75
2023/04/26 04:19:45;;;;;;;170.17;45.87;;;4.80;99.90;;;3.66;100.00;97388.06;4931658;29;20890;-75
2023/04/26 04:22:10;;;;;;;150.60;39.85;;;4.80;99.90;;;3.48;100.00;97385.28;4933039;29;20414;-75
2023/04/26 04:24:37;;;;;;;153.38;40.45;;;4.80;99.90;;;3.46;100.00;97385.50;4944264;29;20436;-75
2023/04/26 04:27:03;;;;;;;144.00;40.42;;;4.70;99.90;;;3.50;100.00;97388.53;4952663;28;20416;-75
2023/04/26 04:29:29;;;;;;;168.10;44.63;;;4.70;99.90;;;3.55;100.00;97391.31;4952748;28;20406;-75
2023/04/26 04:31:57;;;;;;;161.35;43.58;;;4.70;99.90;;;3.49;100.00;97400.78;4952978;28;20812;-75
2023/04/26 04:34:23;;;;;;;144.80;40.70;;;4.70;99.90;;;3.44;100.00;97391.97;4952487;28;20796;-75
2023/04/26 04:36:51;;;;;;;148.00;39.50;;;4.70;99.90;;;3.39;100.00;97394.38;4952603;28;20784;-75
2023/04/26 04:39:17;;;;;;;148.37;39.00;;;4.70;99.90;;;3.43;100.00;97406.84;4952269;28;20432;-75
2023/04/26 04:41:47;;;;;;;150.68;41.35;;;4.70;99.90;;;3.47;100.00;97402.81;4952314;28;20429;-75
2023/04/26 04:44:14;;;;;;;125.18;37.83;;;4.70;99.90;;;3.46;100.00;97395.97;4952438;28;20473;-76
2023/04/26 04:46:40;;;;;;;133.63;37.83;;;4.70;99.90;;;3.47;100.00;97397.56;4952631;28;20406;-75
2023/04/26 04:49:11;;;;;;;152.25;40.95;;;4.70;99.90;;;3.60;100.00;97401.19;4952308;28;20412;-76
2023/04/26 04:51:37;;;;;;;147.38;39.47;;;4.80;99.90;;;3.56;100.00;97406.00;4952488;28;20409;-75
2023/04/26 04:54:10;;;;;;;141.98;37.47;;;4.80;99.90;;;3.55;100.00;97407.00;4950847;28;20413;-76
2023/04/26 04:56:36;;;;;;;125.15;34.15;;;4.80;99.90;;;3.58;100.00;97409.22;4914197;29;20404;-76
2023/04/26 04:59:03;;;;;;;115.80;32.63;;;4.80;99.90;;;3.63;100.00;97400.75;4914239;29;20839;-76
2023/04/26 05:01:31;;;;;;;113.88;33.13;;;4.80;99.90;;;3.68;100.00;97414.84;4914210;29;20895;-76
2023/04/26 05:03:57;;;;;;;138.02;37.80;;;4.90;99.90;;;3.79;100.00;97413.38;4930462;29;20422;-75
2023/04/26 05:06:26;;;;;;;145.60;39.93;;;5.00;99.90;;;3.82;100.00;97420.84;4932994;29;20450;-76
2023/04/26 05:08:52;;;;;;;130.80;36.20;;;5.00;99.90;;;3.82;100.00;97419.03;4932966;29;20408;-76
2023/04/26 05:11:18;;;;;;;120.10;33.72;;;5.00;99.90;;;3.86;100.00;97424.63;4931410;29;20422;-76
2023/04/26 05:13:45;;;;;;;107.38;31.95;;;5.10;99.90;;;3.90;100.00;97431.09;4932677;29;20439;-76
2023/04/26 05:16:11;;;;;;;107.35;31.17;;;5.10;99.90;;;3.96;100.00;97427.63;4933073;29;21067;-76
2023/04/26 05:18:36;;;;;;;109.10;30.80;;;5.10;99.90;;;4.04;100.00;97434.44;4931641;29;20428;-76
2023/04/26 05:21:03;;;;;;;121.38;32.20;;;5.20;99.90;;;4.14;100.00;97426.94;4932914;29;20467;-76
2023/04/26 05:23:30;;;;;;;127.67;35.00;;;5.30;99.90;;;4.25;100.00;97434.13;4932969;29;20407;-77
2023/04/26 05:26:00;;;;;;;136.25;36.05;;;5.40;99.90;;;4.31;100.00;97427.25;4933138;29;20414;-75
2023/04/26 05:28:25;;;;;;;120.75;33.25;;;5.50;99.90;;;4.37;100.00;97435.06;4936522;29;20494;-75
2023/04/26 05:30:51;;;;;;;104.73;30.80;;;5.60;99.90;;;4.44;100.00;97442.91;4936566;29;20885;-75
2023/04/26 05:33:17;;;;;;;124.30;35.60;;;5.60;99.90;;;4.51;100.00;97443.69;4936425;29;20420;-75
2023/04/26 05:35:43;;;;;;;128.02;34.78;;;5.60;99.90;;;4.55;100.00;97448.28;4936538;29;20454;-75
2023/04/26 05:38:09;;;;;;;132.68;35.85;;;5.70;99.90;;;4.57;100.00;97441.03;4934820;29;20455;-75
2023/04/26 05:40:36;;;;;;;125.83;33.60;;;5.70;99.90;;;4.59;100.00;97446.03;4936280;29;20867;-75
2023/04/26 05:43:02;;;;;;;110.53;32.47;;;5.80;99.90;;;4.64;100.00;97449.66;4936458;29;20407;-75
2023/04/26 05:45:28;;;;;;;133.73;36.50;;;5.80;99.90;;;4.72;100.00;97447.78;4936251;29;20770;-75
2023/04/26 05:47:54;;;;;;;116.60;33.92;;;5.80;99.90;;;4.78;100.00;97452.16;4936192;29;20423;-76
2023/04/26 05:50:20;;;;;;;134.05;37.05;;;5.90;99.90;;;4.83;100.00;97453.13;4936003;29;20443;-76
2023/04/26 05:52:46;;;;;;;130.20;35.08;;;6.00;99.90;;;4.88;100.00;97457.75;4936186;29;20494;-76
2023/04/26 05:55:12;;;;;;;162.13;40.78;;;6.00;99.90;;;4.94;100.00;97459.53;4935946;29;20886;-76
2023/04/26 05:57:39;;;;;;;168.47;42.07;;;6.00;99.90;;;4.97;100.00;97456.47;4934861;29;20427;-76
2023/04/26 06:00:10;;;;;;;164.50;43.22;;;6.10;99.90;;;5.01;100.00;97455.03;4935961;29;20423;-76
2023/04/26 06:02:36;;;;;;;157.90;41.33;;;6.10;99.90;;;5.04;100.00;97452.78;4935916;29;20779;-76
2023/04/26 06:05:03;;;;;;;181.87;46.07;;;6.10;99.90;;;5.09;100.00;97451.34;4936401;29;20497;-76
2023/04/26 06:07:30;;;;;;;173.45;44.33;;;6.20;99.90;;;5.11;100.00;97450.13;4936490;29;20956;-77
2023/04/26 06:09:55;;;;;;;174.15;42.80;;;6.20;99.90;;;5.16;100.00;97454.72;4936128;29;20400;-76
2023/04/26 06:12:22;;;;;;;172.93;43.35;;;6.30;99.90;;;5.19;100.00;97455.06;4935710;29;20913;-75
2023/04/26 06:14:49;;;;;;;169.53;42.13;;;6.30;99.90;;;5.23;100.00;97453.63;4935660;29;20936;-76
2023/04/26 06:17:15;;;;;;;176.70;43.95;;;6.30;99.90;;;5.26;100.00;97457.66;4935235;29;20433;-75
2023/04/26 06:19:41;;;;;;;172.63;43.65;;;6.30;99.90;;;5.28;100.00;97456.41;4936184;29;20838;-75
2023/04/26 06:22:07;;;;;;;171.20;41.70;;;6.40;99.90;;;5.31;100.00;97466.50;4936427;29;20414;-75
2023/04/26 06:24:33;;;;;;;156.48;38.53;;;6.40;99.90;;;5.31;100.00;97465.69;4932608;29;20793;-75
2023/04/26 06:26:59;;;;;;;160.57;41.37;;;6.40;99.90;;;5.32;100.00;97469.91;4940242;29;20507;-75
2023/04/26 06:29:24;;;;;;;137.13;36.28;;;6.40;99.90;;;5.35;100.00;97466.84;4935248;29;20418;-75
2023/04/26 06:31:52;;;;;;;131.18;37.63;;;6.40;99.90;;;5.39;100.00;97470.66;4935379;29;20411;-74
2023/04/26 06:34:18;;;;;;;140.68;36.83;;;6.40;99.90;;;5.43;100.00;97475.25;4935222;29;20411;-74
2023/04/26 06:36:44;;;;;;;138.50;38.25;;;6.50;99.90;;;5.48;100.00;97479.88;4935422;29;20743;-74
2023/04/26 06:39:10;;;;;;;141.25;39.17;;;6.60;99.90;;;5.53;100.00;97480.03;4942962;23;20564;-74
2023/04/26 06:41:37;;;;;;;130.15;36.03;;;6.60;99.90;;;5.56;100.00;97482.22;4939468;29;20404;-74
2023/04/26 06:44:03;;;;;;;126.82;35.25;;;6.60;99.90;;;5.60;100.00;97478.13;4931926;29;20794;-74
2023/04/26 06:46:29;;;;;;;132.00;36.05;;;6.60;99.90;;;5.63;100.00;97476.91;4932161;29;20411;-74
2023/04/26 06:48:56;;;;;;;104.60;33.22;;;6.70;99.90;;;5.70;100.00;97477.63;4925036;29;20414;-74
2023/04/26 06:51:22;;;;;;;119.88;33.25;;;6.70;99.90;;;5.71;100.00;97472.16;4929380;29;20510;-75
2023/04/26 06:53:48;;;;;;;107.43;32.00;;;6.70;99.90;;;5.76;100.00;97466.25;4931476;29;20986;-75
2023/04/26 06:56:14;;;;;;;89.82;28.17;;;6.80;99.90;;;5.81;100.00;97474.28;4931387;29;20494;-75
2023/04/26 06:58:57;;;;;;;81.20;24.77;;;6.80;99.90;;;5.90;100.00;97472.19;4930083;29;20971;-75
2023/04/26 07:01:23;;;;;;;63.40;20.75;;;6.90;99.90;;;5.99;100.00;97470.88;4920731;29;20499;-74
2023/04/26 07:03:49;;;;;;;58.80;19.47;;;7.00;99.90;;;6.07;100.00;97470.59;4932059;29;20473;-75
2023/04/26 07:06:16;;;;;;;61.87;21.40;;;7.10;99.90;;;6.13;100.00;97464.47;4931563;29;20426;-74
2023/04/26 07:08:42;;;;;;;74.47;23.30;;;7.10;99.90;;;6.24;100.00;97470.81;4938146;29;20842;-76
2023/04/26 07:11:09;;;;;;;60.40;21.07;;;7.20;99.90;;;6.27;100.00;97465.91;4935961;29;20466;-76
2023/04/26 07:13:35;;;;;;;60.67;19.70;;;7.30;99.90;;;6.36;100.00;97461.94;4930447;29;20419;-75
2023/04/26 07:16:01;;;;;;;60.35;20.48;;;7.30;99.90;;;6.40;100.00;97455.22;4931427;29;20839;-75
2023/04/26 07:18:26;;;;;;;61.47;21.30;;;7.30;99.90;;;6.50;100.00;97462.56;4922323;29;20464;-75
2023/04/26 07:20:52;;;;;;;60.28;20.90;;;7.50;99.90;;;6.59;100.00;97453.34;4928813;29;21148;-75
2023/04/26 07:23:20;;;;;;;67.37;21.03;;;7.50;99.90;;;6.72;100.00;97452.34;4928063;29;20790;-76
2023/04/26 07:25:46;;;;;;;70.18;23.98;;;7.70;99.90;;;6.80;100.00;97452.03;4928070;29;20420;-76
2023/04/26 07:28:11;;;;;;;56.92;20.95;;;7.70;99.90;;;6.90;100.00;97447.03;4939859;29;20411;-76
2023/04/26 07:30:37;;;;;;;59.90;21.03;;;7.90;99.90;;;7.02;100.00;97453.09;4926963;29;20499;-76
2023/04/26 07:33:03;;;;;;;52.35;19.27;;;8.00;99.90;;;7.13;100.00;97449.69;4931686;29;20469;-76
2023/04/26 07:35:29;;;;;;;46.50;19.13;;;8.00;99.90;;;7.28;100.00;97449.25;4920247;29;20784;-76
2023/04/26 07:37:55;;;;;;;37.67;16.20;;;8.20;99.90;;;7.38;100.00;97449.47;4915226;29;20405;-77
2023/04/26 07:40:25;;;;;;;39.33;16.67;;;8.30;99.90;;;7.52;100.00;97447.44;4928988;29;20417;-76
2023/04/26 07:42:51;;;;;;;32.33;14.55;;;8.40;99.90;;;7.64;100.00;97446.38;4926918;29;20425;-76
2023/04/26 07:45:18;;;;;;;33.70;13.43;;;8.50;99.90;;;7.87;100.00;97450.03;4933011;29;20470;-74
2023/04/26 07:47:44;;;;;;;23.23;11.50;;;8.70;99.90;;;8.05;100.00;97447.22;4934098;29;20419;-74
2023/04/26 07:50:10;;;;;;;24.15;12.40;;;8.90;99.90;;;8.21;100.00;97446.50;4938037;28;20423;-74
2023/04/26 07:52:36;;;;;;;23.40;10.98;;;9.10;99.90;;;8.37;100.00;97445.78;4933459;29;20775;-74
2023/04/26 07:55:03;;;;;;;17.43;9.37;;;9.20;99.90;;;8.48;100.00;97444.16;4933723;29;20415;-75
2023/04/26 07:57:30;;;;;;;16.48;9.60;;;9.30;99.90;;;8.49;100.00;97453.66;4932905;29;20412;-76
2023/04/26 07:59:56;;;;;;;19.58;9.68;;;9.30;99.90;;;8.50;100.00;97452.59;4932611;29;20515;-76
2023/04/26 08:02:22;;;;;;;16.33;9.00;;;9.30;99.90;;;8.52;100.00;97443.44;4933946;29;20412;-76
2023/04/26 08:04:54;;;;;;;16.30;8.40;;;9.40;99.90;;;8.43;100.00;97449.31;4933894;29;20409;-76
2023/04/26 08:07:20;;;;;;;14.02;7.72;;;9.30;99.90;;;8.38;100.00;97452.66;4933988;29;20414;-76
2023/04/26 08:09:47;;;;;;;15.07;8.50;;;9.30;99.90;;;8.36;100.00;97448.66;4933819;29;20859;-76
2023/04/26 08:12:13;;;;;;;14.07;7.83;;;9.20;99.90;;;8.40;100.00;97447.16;4934052;29;20802;-75
2023/04/26 08:14:41;;;;;;;13.73;8.13;;;9.30;99.90;;;8.47;100.00;97456.53;4938171;29;20438;-75
2023/04/26 08:17:10;;;;;;;18.10;10.05;;;9.30;99.90;;;8.61;100.00;97454.41;4951687;28;20421;-74
2023/04/26 08:19:37;;;;;;;16.23;9.60;;;9.40;99.90;;;8.71;100.00;97465.16;4952808;28;20423;-75
2023/04/26 08:22:04;;;;;;;20.42;11.00;;;9.60;99.90;;;8.83;100.00;97454.53;4933620;28;20514;-75
2023/04/26 08:24:30;;;;;;;18.90;9.77;;;9.70;99.90;;;8.73;100.00;97460.41;4934515;29;20470;-75
2023/04/26 08:26:57;;;;;;;13.50;8.30;;;9.70;99.90;;;8.75;100.00;97465.47;4934672;29;20412;-75
2023/04/26 08:29:25;;;;;;;12.45;8.00;;;9.70;99.90;;;8.76;100.00;97459.97;4937809;29;20503;-75
2023/04/26 08:31:54;;;;;;;14.30;8.77;;;9.60;99.90;;;8.77;100.00;97458.13;4936387;29;20415;-74
2023/04/26 08:34:20;;;;;;;16.42;9.10;;;9.60;99.90;;;8.88;100.00;97457.25;4933002;29;20770;-76
2023/04/26 08:36:46;;;;;;;17.42;9.30;;;9.70;99.90;;;8.95;100.00;97457.88;4933134;29;20403;-76
2023/04/26 08:39:12;;;;;;;18.08;9.10;;;9.70;99.90;;;8.36;100.00;97453.94;4932889;29;20578;-76
2023/04/26 08:41:54;;;;;;;16.90;9.45;;;9.30;99.90;;;8.54;100.00;97467.75;4933049;29;20746;-75
2023/04/26 08:44:23;;;;;;;15.63;8.73;;;9.40;99.90;;;8.59;100.00;97453.03;4930689;29;20822;-77
2023/04/26 08:47:00;;;;;;;12.52;7.10;;;9.50;99.90;;;8.64;100.00;97453.94;4929772;29;20772;-76
2023/04/26 08:49:39;;;;;;;14.00;7.60;;;9.60;99.90;;;8.73;100.00;97462.25;4932861;29;20404;-77
2023/04/26 08:52:09;;;;;;;15.48;7.95;;;9.60;99.90;;;8.78;100.00;97467.66;4932763;29;20775;-77
2023/04/26 08:54:36;;;;;;;16.60;8.15;;;9.60;99.90;;;8.88;100.00;97468.59;4932750;29;20414;-77
2023/04/26 08:57:03;;;;;;;16.42;8.55;;;9.70;99.90;;;8.92;100.00;97467.09;4931847;29;20785;-77
2023/04/26 08:59:30;;;;;;;13.00;8.25;;;9.70;99.90;;;8.95;100.00;97460.53;4932811;29;20790;-76
2023/04/26 09:01:59;;;;;;;18.58;9.48;;;9.80;99.90;;;9.02;100.00;97465.69;4934475;29;20905;-76
2023/04/26 09:04:25;;;;;;;13.40;8.35;;;9.80;99.90;;;9.17;100.00;97469.34;4936590;29;20411;-76
2023/04/26 09:06:57;;;;;;;11.75;8.35;;;10.00;99.90;;;9.25;100.00;97466.31;4936584;29;20912;-76
2023/04/26 09:09:25;;;;;;;13.57;8.00;;;10.10;99.90;;;9.36;100.00;97462.00;4936512;29;20498;-77
2023/04/26 09:11:56;;;;;;;13.45;7.80;;;10.20;99.90;;;9.39;100.00;97464.16;4936547;29;20415;-77
2023/04/26 09:14:23;;;;;;;13.80;8.27;;;10.30;99.90;;;9.26;100.00;97461.84;4936268;29;20432;-77
2023/04/26 09:16:49;;;;;;;14.52;8.35;;;10.10;99.90;;;9.18;100.00;97462.22;4936408;29;20451;-76
2023/04/26 09:19:17;;;;;;;12.77;7.65;;;10.10;99.90;;;9.12;100.00;97466.63;4936358;29;20458;-76
2023/04/26 09:21:44;;;;;;;10.70;7.00;;;10.00;99.90;;;9.08;100.00;97468.16;4936168;29;20430;-76
2023/04/26 09:24:11;;;;;;;18.02;9.05;;;10.00;99.90;;;8.81;100.00;97467.16;4936246;29;20920;-76
2023/04/26 09:26:37;;;;;;;13.07;7.60;;;9.70;99.90;;;8.70;100.00;97463.56;4936250;29;20747;-76
2023/04/26 09:29:14;;;;;;;13.00;8.05;;;9.50;99.90;;;8.84;100.00;97464.84;4936260;29;20507;-75
2023/04/26 09:31:43;;;;;;;15.55;9.18;;;9.70;99.90;;;8.86;100.00;97454.88;4935954;29;20407;-75
2023/04/26 09:34:11;;;;;;;15.23;8.30;;;9.80;99.90;;;9.02;100.00;97452.47;4933712;29;20422;-76
2023/04/26 09:36:49;;;;;;;14.18;8.25;;;9.90;99.90;;;9.15;100.00;97444.25;4936043;29;20411;-77
2023/04/26 09:39:32;;;;;;;14.60;7.18;;;10.00;99.90;;;9.36;100.00;97442.72;4931172;29;20833;-77
2023/04/26 09:41:58;;;;;;;11.10;6.60;;;10.10;99.90;;;9.55;100.00;97442.19;4935923;29;20414;-77
2023/04/26 09:44:25;;;;;;;14.25;8.40;;;10.40;99.90;;;9.82;100.00;97438.88;4934732;29;20430;-77
2023/04/26 09:47:02;;;;;;;11.02;7.97;;;10.60;99.90;;;9.85;100.00;97441.03;4934793;29;20954;-77
2023/04/26 09:49:31;;;;;;;10.93;6.93;;;10.70;99.90;;;10.09;100.00;97443.19;4933784;29;20408;-76
2023/04/26 09:52:04;;;;;;;11.10;6.60;;;10.90;99.90;;;10.38;100.00;97440.34;4936158;29;20412;-75
2023/04/26 09:54:47;;;;;;;9.27;5.80;;;11.10;99.90;;;10.79;100.00;97446.88;4933564;29;20412;-77
2023/04/26 09:57:16;;;;;;;8.40;5.50;;;11.50;99.90;;;10.91;100.00;97441.41;4934625;29;20506;-76
2023/04/26 09:59:44;;;;;;;15.07;6.85;;;11.70;99.90;;;10.95;100.00;97445.19;4935549;29;20426;-76
2023/04/26 10:02:15;;;;;;;11.05;6.18;;;11.70;99.90;;;11.07;100.00;97446.59;4933472;29;20910;-75
2023/04/26 10:04:48;;;;;;;10.23;5.75;;;11.90;99.90;;;11.20;100.00;97448.81;4935689;29;20495;-75
2023/04/26 10:07:17;;;;;;;8.60;5.47;;;12.00;99.90;;;11.48;100.00;97446.91;4934014;29;20886;-75
2023/04/26 10:09:44;;;;;;;8.55;5.80;;;12.20;99.90;;;11.79;100.00;97439.97;4935438;29;20920;-75